KUF weather

Kurumoch International Airport
Samara, Samara Oblast, Russia

Public forecast

Using degrees Celsius for public forecast. Weather courtesy of forecast.io.

METAR (pilot weather report)

Retrieved 2019/04/25 08:00 UTC (9 minutes ago):

UWWW 250800Z 33006MPS 9999 SCT033 20/01 Q1017 R33/CLRD60 NOSIG RMK QFE752/1003

TAF (pilot weather forecast)

Retrieved 2019/04/25 09:22 UTC (0 seconds ago):

TAF UWWW 250758Z 2509/2609 30006G12MPS 9999 BKN030 TX21/2511Z TN09/2602Z TEMPO 2509/2516 34008G15MPS BKN020CB FM251600 36003G09MPS 9999 BKN020 TEMPO 2516/2609 02006G12MPS 3100 -SHRA BR BKN011CB